createdAt,value
2018-04-13T00:04:18.439Z,97.40
2018-04-13T00:09:13.573Z,98.30
2018-04-13T00:14:08.699Z,98.40
2018-04-13T00:19:03.820Z,98.40
2018-04-13T00:23:58.186Z,98.40
2018-04-13T00:28:52.557Z,98.60
2018-04-13T00:33:46.899Z,98.50
2018-04-13T00:38:41.264Z,98.90
2018-04-13T00:43:35.652Z,99.10
2018-04-13T00:48:30.006Z,99.20
2018-04-13T00:53:30.461Z,99.30
2018-04-13T00:58:25.640Z,99.40
2018-04-13T01:03:20.028Z,99.40
2018-04-13T01:08:14.389Z,99.90
2018-04-13T01:13:09.521Z,99.70
2018-04-13T01:18:04.638Z,99.80
2018-04-13T01:22:59.814Z,99.90
2018-04-13T01:27:54.172Z,99.90
2018-04-13T01:32:48.715Z,99.90
2018-04-13T01:37:43.058Z,99.90
2018-04-13T01:42:38.179Z,99.90
2018-04-13T01:47:33.300Z,99.90
2018-04-13T01:52:28.598Z,99.90
2018-04-13T01:57:22.969Z,99.90
2018-04-13T02:02:17.332Z,99.90
2018-04-13T02:07:12.455Z,99.90
2018-04-13T02:12:07.581Z,99.90
2018-04-13T02:17:02.476Z,99.90
2018-04-13T02:21:56.861Z,99.90
2018-04-13T02:26:51.236Z,99.90
2018-04-13T02:31:45.620Z,99.90
2018-04-13T02:36:39.977Z,99.90
2018-04-13T02:41:34.086Z,99.90
2018-04-13T02:46:29.360Z,99.90
2018-04-13T02:51:23.722Z,99.90
2018-04-13T02:56:18.916Z,99.90
2018-04-13T03:01:13.297Z,99.90
2018-04-13T03:06:07.658Z,99.90
2018-04-13T03:11:01.881Z,99.90
2018-04-13T03:15:56.021Z,99.90
2018-04-13T03:20:51.871Z,99.90
2018-04-13T03:25:46.222Z,99.90
2018-04-13T03:30:40.595Z,99.90
2018-04-13T03:35:35.701Z,99.90
2018-04-13T03:40:30.837Z,99.90
2018-04-13T03:45:25.255Z,99.90
2018-04-13T03:50:19.621Z,99.90
2018-04-13T03:55:14.834Z,99.90
2018-04-13T04:00:09.196Z,99.90
2018-04-13T04:05:03.542Z,99.90
2018-04-13T04:09:58.664Z,99.90
2018-04-13T04:14:53.025Z,99.90
2018-04-13T04:20:04.726Z,99.90
2018-04-13T04:25:16.179Z,99.90
2018-04-13T04:30:10.533Z,99.90
2018-04-13T04:35:04.882Z,99.90
2018-04-13T04:40:00.867Z,99.90
2018-04-13T04:44:55.295Z,99.90
2018-04-13T04:49:49.649Z,99.90
2018-04-13T04:54:44.778Z,99.90
2018-04-13T04:59:39.184Z,99.90
2018-04-13T05:04:33.645Z,99.90
2018-04-13T05:09:28.079Z,99.90
2018-04-13T05:14:23.198Z,99.90
2018-04-13T05:19:17.757Z,99.90
2018-04-13T05:24:12.106Z,99.90
2018-04-13T05:29:07.260Z,99.90
2018-04-13T05:34:01.626Z,99.90
2018-04-13T05:38:56.755Z,99.50
2018-04-13T05:43:51.904Z,99.30
2018-04-13T05:48:46.265Z,99.30
2018-04-13T05:53:41.417Z,99.10
2018-04-13T05:58:35.916Z,99.10
2018-04-13T06:03:30.311Z,99.00
2018-04-13T06:08:25.512Z,97.90
2018-04-13T06:13:20.702Z,97.70
2018-04-13T06:18:15.152Z,98.00
2018-04-13T06:23:09.613Z,97.50
2018-04-13T06:28:03.984Z,97.10
2018-04-13T06:32:58.444Z,96.80
2018-04-13T06:37:53.069Z,96.90
2018-04-13T06:42:47.926Z,96.30
2018-04-13T06:47:42.404Z,95.50
2018-04-13T06:52:37.736Z,94.10
2018-04-13T06:57:32.892Z,93.70
2018-04-13T07:02:27.089Z,93.40
2018-04-13T07:07:21.748Z,93.50
2018-04-13T07:12:16.149Z,92.40
2018-04-13T07:17:12.003Z,88.50
2018-04-13T07:22:07.128Z,87.10
2018-04-13T07:27:02.374Z,85.50
2018-04-13T07:31:57.496Z,83.50
2018-04-13T07:36:51.947Z,83.50
2018-04-13T07:41:46.435Z,83.00
2018-04-13T07:46:40.822Z,81.70
2018-04-13T07:51:35.189Z,80.40
2018-04-13T07:56:30.342Z,80.20
2018-04-13T08:01:24.714Z,80.20
2018-04-13T08:06:19.870Z,78.70
2018-04-13T08:11:14.249Z,78.60
2018-04-13T08:16:08.612Z,78.20
2018-04-13T08:21:03.053Z,78.00
2018-04-13T08:25:57.504Z,76.90
2018-04-13T08:30:51.887Z,75.60
2018-04-13T08:35:46.343Z,74.20
2018-04-13T08:40:42.398Z,75.40
2018-04-13T08:45:37.595Z,76.40
2018-04-13T08:50:32.200Z,76.40
2018-04-13T08:55:27.022Z,76.60
2018-04-13T09:00:21.393Z,76.70
2018-04-13T09:05:15.763Z,76.50
2018-04-13T09:10:10.232Z,76.30
2018-04-13T09:15:04.609Z,74.90
2018-04-13T09:19:58.988Z,72.00
2018-04-13T09:24:53.510Z,68.60
2018-04-13T09:29:48.004Z,70.50
2018-04-13T09:34:42.737Z,70.80
2018-04-13T09:39:37.114Z,70.80
2018-04-13T09:44:31.491Z,69.40
2018-04-13T09:49:25.864Z,63.60
2018-04-13T09:54:20.383Z,63.40
2018-04-13T09:59:15.536Z,63.80
2018-04-13T10:04:13.768Z,63.80
2018-04-13T10:09:08.941Z,65.20
2018-04-13T10:14:03.435Z,65.10
2018-04-13T10:18:58.587Z,65.50
2018-04-13T10:23:53.133Z,65.40
2018-04-13T10:28:47.509Z,65.60
2018-04-13T10:33:41.885Z,65.00
2018-04-13T10:38:37.352Z,65.00
2018-04-13T10:43:31.505Z,65.00
2018-04-13T10:48:25.623Z,65.30
2018-04-13T10:53:20.917Z,65.60
2018-04-13T10:58:15.322Z,65.50
2018-04-13T11:03:10.472Z,66.10
2018-04-13T11:08:05.903Z,65.90
2018-04-13T11:13:00.261Z,65.90
2018-04-13T11:17:55.391Z,65.50
2018-04-13T11:22:50.775Z,65.40
2018-04-13T11:27:45.718Z,65.20
2018-04-13T11:32:41.105Z,66.10
2018-04-13T11:37:35.570Z,66.10
2018-04-13T11:42:29.942Z,66.60
2018-04-13T11:47:24.298Z,66.80
2018-04-13T11:52:18.806Z,67.10
2018-04-13T11:57:13.294Z,66.40
2018-04-13T12:02:07.477Z,65.60
2018-04-13T12:07:02.369Z,64.70
2018-04-13T12:11:56.755Z,64.70
2018-04-13T12:16:51.180Z,63.70
2018-04-13T12:21:46.552Z,58.70
2018-04-13T12:26:41.047Z,58.80
2018-04-13T12:31:35.181Z,58.60
2018-04-13T12:36:29.615Z,57.60
2018-04-13T12:41:24.753Z,57.10
2018-04-13T12:46:19.881Z,57.60
2018-04-13T12:51:14.248Z,57.50
2018-04-13T12:56:08.680Z,58.10
2018-04-13T13:01:03.153Z,57.70
2018-04-13T13:05:57.665Z,57.60
2018-04-13T13:10:52.050Z,57.70
2018-04-13T13:15:46.600Z,57.20
2018-04-13T13:20:41.485Z,56.30
2018-04-13T13:25:35.848Z,56.30
2018-04-13T13:30:30.205Z,56.00
2018-04-13T13:35:25.365Z,56.30
2018-04-13T13:40:19.711Z,56.20
2018-04-13T13:45:14.847Z,56.20
2018-04-13T13:50:09.976Z,56.60
2018-04-13T13:55:05.110Z,57.30
2018-04-13T13:59:59.541Z,57.30
2018-04-13T14:04:53.940Z,57.60
2018-04-13T14:09:48.369Z,57.80
2018-04-13T14:14:42.738Z,58.20
2018-04-13T14:19:38.831Z,58.20
2018-04-13T14:24:33.397Z,58.20
2018-04-13T14:29:27.771Z,58.00
2018-04-13T14:34:22.178Z,58.10
2018-04-13T14:39:16.521Z,58.60
2018-04-13T14:44:11.159Z,58.80
2018-04-13T14:49:05.698Z,59.20
2018-04-13T14:54:02.309Z,59.50
2018-04-13T14:58:57.926Z,59.70
2018-04-13T15:03:52.410Z,59.70
2018-04-13T15:08:46.771Z,59.60
2018-04-13T15:13:41.910Z,60.00
2018-04-13T15:18:37.315Z,60.40
2018-04-13T15:23:32.178Z,60.30
2018-04-13T15:28:27.020Z,61.00
2018-04-13T15:33:21.421Z,61.60
2018-04-13T15:38:15.826Z,62.50
2018-04-13T15:43:10.212Z,63.30
2018-04-13T15:48:04.907Z,63.90
2018-04-13T15:52:59.259Z,65.00
2018-04-13T15:57:54.436Z,66.00
2018-04-13T16:02:48.787Z,66.00
2018-04-13T16:07:43.999Z,66.40
2018-04-13T16:12:38.391Z,66.40
2018-04-13T16:17:33.039Z,66.80
2018-04-13T16:22:27.430Z,66.70
2018-04-13T16:27:22.925Z,66.50
2018-04-13T16:32:17.548Z,66.50
2018-04-13T16:37:11.891Z,66.50
2018-04-13T16:42:06.438Z,67.00
2018-04-13T16:47:00.888Z,67.30
2018-04-13T16:51:55.255Z,67.50
2018-04-13T16:56:49.850Z,67.70
2018-04-13T17:01:44.230Z,68.40
2018-04-13T17:06:38.971Z,68.90
2018-04-13T17:11:33.349Z,69.20
2018-04-13T17:16:27.830Z,69.70
2018-04-13T17:32:15.649Z,70.80
2018-04-13T17:48:13.265Z,72.50
2018-04-13T17:53:17.304Z,72.30
2018-04-13T17:58:11.866Z,73.10
2018-04-13T18:03:06.266Z,73.40
2018-04-13T18:08:00.656Z,74.50
2018-04-13T18:13:02.671Z,75.60
2018-04-13T18:17:57.929Z,76.20
2018-04-13T18:22:52.463Z,76.10
2018-04-13T18:27:50.782Z,77.20
2018-04-13T18:32:45.604Z,77.10
2018-04-13T18:37:41.444Z,77.80
2018-04-13T18:42:36.235Z,78.10
2018-04-13T18:47:32.448Z,78.60
2018-04-13T18:52:27.729Z,79.50
2018-04-13T18:57:22.274Z,79.40
2018-04-13T19:02:17.475Z,80.00
2018-04-13T19:07:11.839Z,79.80
2018-04-13T19:12:06.209Z,80.10
2018-04-13T19:17:00.676Z,80.10
2018-04-13T19:21:55.067Z,80.40
2018-04-13T19:26:49.469Z,80.30
2018-04-13T19:31:43.835Z,80.20
2018-04-13T19:36:38.966Z,80.50
2018-04-13T19:41:33.325Z,80.50
2018-04-13T19:46:27.971Z,80.70
2018-04-13T19:51:23.609Z,80.40
2018-04-13T19:56:18.208Z,80.40
2018-04-13T20:01:13.929Z,80.60
2018-04-13T20:06:09.154Z,81.20
2018-04-13T20:11:04.567Z,81.20
2018-04-13T20:15:59.146Z,81.20
2018-04-13T20:20:53.553Z,80.80
2018-04-13T20:25:48.150Z,80.50
2018-04-13T20:30:42.582Z,80.30
2018-04-13T20:35:38.287Z,81.20
2018-04-13T20:40:32.687Z,81.20
2018-04-13T20:45:27.131Z,82.00
2018-04-13T20:50:21.538Z,81.60
2018-04-13T20:55:16.691Z,81.70
2018-04-13T21:00:10.874Z,81.70
2018-04-13T21:05:06.121Z,82.10
2018-04-13T21:10:00.655Z,82.10
2018-04-13T21:14:55.085Z,82.60
2018-04-13T21:19:49.501Z,82.90
2018-04-13T21:24:44.168Z,84.30
2018-04-13T21:29:38.857Z,83.90
2018-04-13T21:34:33.290Z,83.80
2018-04-13T21:39:27.697Z,84.20
2018-04-13T21:44:22.176Z,84.60
2018-04-13T21:49:16.572Z,85.10
2018-04-13T21:54:11.321Z,85.80
2018-04-13T21:59:05.926Z,87.10
2018-04-13T22:04:00.324Z,87.10
2018-04-13T22:08:54.731Z,87.70
2018-04-13T22:13:49.402Z,88.70
2018-04-13T22:18:43.981Z,89.80
2018-04-13T22:23:39.114Z,90.20
2018-04-13T22:28:34.481Z,90.40
2018-04-13T22:33:28.875Z,90.40
2018-04-13T22:38:23.217Z,91.00
2018-04-13T22:43:17.650Z,90.70
2018-04-13T22:48:12.916Z,91.10
2018-04-13T22:53:07.427Z,91.10
2018-04-13T22:58:02.099Z,91.30
2018-04-13T23:02:56.598Z,91.20
2018-04-13T23:07:51.068Z,91.20
2018-04-13T23:12:46.685Z,91.30
2018-04-13T23:17:41.259Z,91.40
2018-04-13T23:22:39.180Z,91.50
2018-04-13T23:27:33.571Z,92.00
2018-04-13T23:32:28.350Z,91.50
2018-04-13T23:37:22.876Z,91.60
2018-04-13T23:42:17.479Z,91.50
2018-04-13T23:47:11.936Z,91.50
2018-04-13T23:52:06.293Z,91.80
2018-04-13T23:57:00.723Z,92.00
